Time,TemperatureF,DewpointF,PressureIn,WindDirection,WindDirectionDegrees,WindSpeedMPH,WindSpeedGustMPH,Humidity,HourlyPrecipIn,Conditions,Clouds,dailyrainin,SoftwareType,DateUTC
2013-02-21 00:40:00,14.5,9.5,30.32,NE,45,0.0,0.0,80,0.00,,,0.00,WUHU21623XXSP,2013-02-21 06:40:00,
2013-02-21 01:40:00,14.7,9.6,30.31,NE,45,0.0,0.0,80,0.00,,,0.00,WUHU21623XXSP,2013-02-21 07:40:00,
2013-02-21 02:40:00,14.7,9.9,30.29,NE,45,0.0,0.0,81,0.00,,,0.00,WUHU21623XXSP,2013-02-21 08:40:00,
2013-02-21 03:40:00,14.5,9.5,30.29,NE,45,0.0,0.0,80,0.00,,,0.00,WUHU21623XXSP,2013-02-21 09:40:00,
2013-02-21 04:40:00,13.8,9.0,30.31,NE,45,0.0,0.0,81,0.00,,,0.00,WUHU21623XXSP,2013-02-21 10:40:00,
2013-02-21 05:40:00,17.8,13.2,30.28,East,90,0.0,0.0,82,0.00,,,0.00,WUHU21623XXSP,2013-02-21 11:40:00,
2013-02-21 06:40:00,19.8,14.9,30.30,ENE,68,0.0,0.0,81,0.00,,,0.00,WUHU21623XXSP,2013-02-21 12:40:00,
2013-02-21 07:40:00,21.4,16.2,30.28,ENE,68,5.4,5.4,80,0.00,,,0.00,WUHU21623XXSP,2013-02-21 13:40:00,
2013-02-21 08:30:00,25.0,18.8,30.29,ESE,112,1.1,1.1,77,0.00,,,0.00,WUHU21623XXSP,2013-02-21 14:30:00,
2013-02-21 08:35:00,25.2,18.9,30.28,East,90,2.2,4.5,77,1.35,,,1.35,WUHU21623XXSP,2013-02-21 14:35:00,
2013-02-21 08:40:00,25.3,19.1,30.27,ESE,112,3.6,6.0,77,0.00,,,1.35,WUHU21623XXSP,2013-02-21 14:40:00,
2013-02-21 08:45:00,25.5,18.9,30.28,East,90,2.2,6.0,76,0.00,,,1.35,WUHU21623XXSP,2013-02-21 14:45:00,
2013-02-21 08:50:00,25.7,19.1,30.29,East,90,3.1,5.1,76,0.00,,,1.35,WUHU21623XXSP,2013-02-21 14:50:00,
2013-02-21 08:55:00,25.9,19.3,30.28,ESE,112,2.2,4.9,76,0.00,,,1.35,WUHU21623XXSP,2013-02-21 14:55:00,
2013-02-21 09:00:00,26.2,19.6,30.30,ESE,112,0.0,4.9,76,0.00,,,1.35,WUHU21623XXSP,2013-02-21 15:00:00,
2013-02-21 09:05:00,26.2,19.6,30.29,ESE,112,4.0,6.0,76,0.00,,,1.35,WUHU21623XXSP,2013-02-21 15:05:00,
2013-02-21 09:10:00,26.6,19.7,30.28,ESE,112,1.6,7.2,75,0.00,,,1.35,WUHU21623XXSP,2013-02-21 15:10:00,
2013-02-21 09:15:00,26.8,19.9,30.28,ESE,112,3.4,7.2,75,0.00,,,1.35,WUHU21623XXSP,2013-02-21 15:15:00,
2013-02-21 09:20:00,27.1,20.2,30.28,ESE,112,5.6,7.2,75,0.00,,,1.35,WUHU21623XXSP,2013-02-21 15:20:00,
2013-02-21 09:25:00,27.3,20.4,30.28,ESE,112,5.8,8.3,75,0.00,,,1.35,WUHU21623XXSP,2013-02-21 15:25:00,
2013-02-21 09:30:00,27.5,20.3,30.27,East,90,5.8,8.3,74,0.00,,,1.35,WUHU21623XXSP,2013-02-21 15:30:00,
2013-02-21 09:35:00,27.7,20.4,30.26,East,90,8.7,8.7,74,0.00,,,1.35,WUHU21623XXSP,2013-02-21 15:35:00,
2013-02-21 09:40:00,28.0,20.8,30.26,ESE,112,10.5,10.5,74,0.00,,,1.35,WUHU21623XXSP,2013-02-21 15:40:00,
2013-02-21 09:45:00,28.0,20.8,30.26,East,90,6.3,10.5,74,0.00,,,1.35,WUHU21623XXSP,2013-02-21 15:45:00,
2013-02-21 09:50:00,28.2,21.0,30.27,ESE,112,9.4,10.5,74,0.00,,,1.35,WUHU21623XXSP,2013-02-21 15:50:00,
2013-02-21 09:55:00,28.8,21.5,30.29,East,90,8.7,10.5,74,0.00,,,1.35,WUHU21623XXSP,2013-02-21 15:55:00,
2013-02-21 10:00:00,29.1,21.8,30.28,ESE,112,6.7,9.4,74,0.00,,,1.35,WUHU21623XXSP,2013-02-21 16:00:00,
2013-02-21 10:05:00,29.1,21.5,30.27,ESE,112,11.9,11.9,73,0.00,,,1.35,WUHU21623XXSP,2013-02-21 16:05:00,
2013-02-21 10:10:00,29.1,21.5,30.26,ESE,112,10.5,11.9,73,0.00,,,1.35,WUHU21623XXSP,2013-02-21 16:10:00,
2013-02-21 10:16:00,28.9,21.3,30.26,East,90,6.7,11.0,73,0.00,,,1.35,WUHU21623XXSP,2013-02-21 16:16:00,
2013-02-21 10:21:00,28.6,21.2,30.27,East,90,9.4,10.5,73,0.00,,,1.35,WUHU21623XXSP,2013-02-21 16:21:00,
2013-02-21 10:26:00,28.6,21.0,30.26,East,90,7.2,11.6,73,0.00,,,1.35,WUHU21623XXSP,2013-02-21 16:26:00,
2013-02-21 10:31:00,28.4,20.9,30.26,ESE,112,8.9,11.6,73,0.00,,,1.35,WUHU21623XXSP,2013-02-21 16:31:00,
2013-02-21 10:36:00,28.6,21.3,30.26,ESE,112,6.9,11.4,74,0.00,,,1.35,WUHU21623XXSP,2013-02-21 16:36:00,
2013-02-21 10:41:00,28.6,21.3,30.25,ESE,112,8.5,11.0,74,0.00,,,1.35,WUHU21623XXSP,2013-02-21 16:41:00,
2013-02-21 10:46:00,28.9,21.7,30.26,SE,135,4.5,9.8,74,0.00,,,1.35,WUHU21623XXSP,2013-02-21 16:46:00,
2013-02-21 10:51:00,29.3,22.0,30.24,East,90,10.1,11.2,74,0.00,,,1.35,WUHU21623XXSP,2013-02-21 16:51:00,
2013-02-21 10:56:00,29.7,22.0,30.24,ESE,112,8.3,11.2,73,0.00,,,1.35,WUHU21623XXSP,2013-02-21 16:56:00,
2013-02-21 11:01:00,30.0,22.4,30.24,SE,135,8.1,11.0,73,0.00,,,1.35,WUHU21623XXSP,2013-02-21 17:01:00,
2013-02-21 11:06:00,30.2,22.5,30.23,ESE,112,10.3,12.1,73,0.00,,,1.35,WUHU21623XXSP,2013-02-21 17:06:00,
2013-02-21 11:11:00,30.2,22.2,30.23,East,90,8.9,14.3,72,0.00,,,1.35,WUHU21623XXSP,2013-02-21 17:11:00,
2013-02-21 11:16:00,30.4,22.4,30.23,ESE,112,9.8,14.3,72,0.00,,,1.35,WUHU21623XXSP,2013-02-21 17:16:00,
2013-02-21 11:21:00,30.7,22.7,30.23,ESE,112,8.9,13.2,72,0.00,,,1.35,WUHU21623XXSP,2013-02-21 17:21:00,
2013-02-21 11:26:00,30.7,22.4,30.22,ESE,112,9.8,12.1,71,0.00,,,1.35,WUHU21623XXSP,2013-02-21 17:26:00,
2013-02-21 11:31:00,30.7,22.4,30.23,ESE,112,11.0,11.9,71,0.00,,,1.35,WUHU21623XXSP,2013-02-21 17:31:00,
2013-02-21 11:36:00,30.7,22.4,30.23,East,90,8.5,12.8,71,0.00,,,1.35,WUHU21623XXSP,2013-02-21 17:36:00,
2013-02-21 11:41:00,30.7,22.4,30.22,ESE,112,9.2,12.8,71,0.00,,,1.35,WUHU21623XXSP,2013-02-21 17:41:00,
2013-02-21 11:46:00,30.7,22.4,30.21,East,90,11.2,11.6,71,0.00,,,1.35,WUHU21623XXSP,2013-02-21 17:46:00,
2013-02-21 11:51:00,30.9,22.6,30.19,ESE,112,8.9,15.7,71,0.00,,,1.35,WUHU21623XXSP,2013-02-21 17:51:00,
2013-02-21 11:56:00,31.1,22.8,30.18,ESE,112,10.7,15.7,71,0.00,,,1.35,WUHU21623XXSP,2013-02-21 17:56:00,
2013-02-21 12:02:00,31.1,22.5,30.18,East,90,10.5,15.9,70,0.00,,,1.35,WUHU21623XXSP,2013-02-21 18:02:00,
2013-02-21 12:07:00,31.1,22.5,30.16,East,90,11.0,16.3,70,0.00,,,1.35,WUHU21623XXSP,2013-02-21 18:07:00,
2013-02-21 12:12:00,30.7,22.1,30.15,ESE,112,13.9,16.3,70,0.00,,,1.35,WUHU21623XXSP,2013-02-21 18:12:00,
2013-02-21 12:17:00,30.6,21.9,30.15,ESE,112,9.8,16.3,70,0.00,,,1.35,WUHU21623XXSP,2013-02-21 18:17:00,
2013-02-21 12:22:00,30.2,21.9,30.15,East,90,9.2,14.8,71,0.00,,,1.35,WUHU21623XXSP,2013-02-21 18:22:00,
2013-02-21 12:27:00,30.0,21.7,30.14,ESE,112,10.5,16.8,71,0.00,,,1.35,WUHU21623XXSP,2013-02-21 18:27:00,
2013-02-21 12:32:00,29.8,21.5,30.13,ESE,112,9.6,16.8,71,0.00,,,1.35,WUHU21623XXSP,2013-02-21 18:32:00,
2013-02-21 12:37:00,29.8,21.5,30.13,East,90,10.1,15.2,71,0.00,,,1.35,WUHU21623XXSP,2013-02-21 18:37:00,
2013-02-21 12:42:00,29.7,21.4,30.12,East,90,10.3,12.1,71,0.00,,,1.35,WUHU21623XXSP,2013-02-21 18:42:00,
2013-02-21 12:47:00,29.7,21.4,30.13,ESE,112,8.9,12.8,71,0.00,,,1.35,WUHU21623XXSP,2013-02-21 18:47:00,
2013-02-21 12:52:00,29.7,21.4,30.12,ESE,112,14.3,14.8,71,0.00,,,1.35,WUHU21623XXSP,2013-02-21 18:52:00,
2013-02-21 12:57:00,29.7,21.4,30.11,East,90,8.9,14.8,71,0.00,,,1.35,WUHU21623XXSP,2013-02-21 18:57:00,
2013-02-21 13:02:00,29.7,21.7,30.12,East,90,10.1,13.6,72,0.00,,,1.35,WUHU21623XXSP,2013-02-21 19:02:00,
2013-02-21 13:07:00,29.5,21.5,30.12,East,90,8.5,13.6,72,0.00,,,1.35,WUHU21623XXSP,2013-02-21 19:07:00,
2013-02-21 13:12:00,29.7,21.7,30.12,East,90,7.6,13.6,72,0.00,,,1.35,WUHU21623XXSP,2013-02-21 19:12:00,
2013-02-21 13:17:00,29.8,21.9,30.12,East,90,8.7,13.6,72,0.00,,,1.35,WUHU21623XXSP,2013-02-21 19:17:00,
2013-02-21 13:22:00,29.8,21.9,30.13,East,90,9.8,13.6,72,0.00,,,1.35,WUHU21623XXSP,2013-02-21 19:22:00,
2013-02-21 13:27:00,29.7,21.7,30.14,East,90,8.1,15.0,72,0.00,,,1.35,WUHU21623XXSP,2013-02-21 19:27:00,
2013-02-21 13:32:00,29.8,21.9,30.14,ESE,112,7.6,15.0,72,0.00,,,1.35,WUHU21623XXSP,2013-02-21 19:32:00,
2013-02-21 13:37:00,29.8,21.9,30.16,ESE,112,9.4,13.9,72,0.00,,,1.35,WUHU21623XXSP,2013-02-21 19:37:00,
2013-02-21 13:42:00,30.0,22.4,30.17,ESE,112,6.5,13.9,73,0.00,,,1.35,WUHU21623XXSP,2013-02-21 19:42:00,
2013-02-21 13:47:00,30.0,22.4,30.17,ESE,112,8.7,13.9,73,0.00,,,1.35,WUHU21623XXSP,2013-02-21 19:47:00,
2013-02-21 13:52:00,30.0,22.0,30.17,ESE,112,8.1,13.4,72,0.00,,,1.35,WUHU21623XXSP,2013-02-21 19:52:00,
2013-02-21 13:58:00,30.0,22.0,30.17,ESE,112,7.6,13.4,72,0.00,,,1.35,WUHU21623XXSP,2013-02-21 19:58:00,
2013-02-21 14:03:00,30.0,22.0,30.17,ESE,112,8.1,11.4,72,0.00,,,1.35,WUHU21623XXSP,2013-02-21 20:03:00,
2013-02-21 14:08:00,30.0,22.0,30.17,ESE,112,8.3,14.8,72,0.00,,,1.35,WUHU21623XXSP,2013-02-21 20:08:00,
2013-02-21 14:13:00,30.0,22.0,30.17,ESE,112,8.5,14.8,72,0.00,,,1.35,WUHU21623XXSP,2013-02-21 20:13:00,
2013-02-21 14:18:00,30.0,22.0,30.17,East,90,9.2,13.4,72,0.00,,,1.35,WUHU21623XXSP,2013-02-21 20:18:00,
2013-02-21 14:23:00,30.0,22.0,30.16,ESE,112,11.0,13.2,72,0.00,,,1.35,WUHU21623XXSP,2013-02-21 20:23:00,
2013-02-21 14:28:00,30.0,22.0,30.16,ESE,112,8.9,12.5,72,0.00,,,1.35,WUHU21623XXSP,2013-02-21 20:28:00,
2013-02-21 14:33:00,30.0,22.0,30.16,ESE,112,9.6,12.5,72,0.00,,,1.35,WUHU21623XXSP,2013-02-21 20:33:00,
2013-02-21 14:38:00,30.0,22.0,30.15,East,90,9.4,11.6,72,0.00,,,1.35,WUHU21623XXSP,2013-02-21 20:38:00,
2013-02-21 14:43:00,30.0,21.7,30.15,ESE,112,11.9,14.1,71,0.00,,,1.35,WUHU21623XXSP,2013-02-21 20:43:00,
2013-02-21 14:48:00,30.0,21.7,30.15,ESE,112,8.1,14.3,71,0.00,,,1.35,WUHU21623XXSP,2013-02-21 20:48:00,
2013-02-21 14:53:00,30.0,21.7,30.15,East,90,10.1,14.8,71,0.00,,,1.35,WUHU21623XXSP,2013-02-21 20:53:00,
2013-02-21 14:58:00,29.7,21.4,30.14,ESE,112,8.3,14.8,71,0.00,,,1.35,WUHU21623XXSP,2013-02-21 20:58:00,
2013-02-21 15:03:00,29.5,21.2,30.14,ESE,112,9.8,13.2,71,0.00,,,1.35,WUHU21623XXSP,2013-02-21 21:03:00,
2013-02-21 15:08:00,29.3,21.4,30.14,ESE,112,9.6,13.2,72,0.00,,,1.35,WUHU21623XXSP,2013-02-21 21:08:00,
2013-02-21 15:13:00,29.1,20.9,30.14,ESE,112,7.2,16.6,71,0.00,,,1.35,WUHU21623XXSP,2013-02-21 21:13:00,
2013-02-21 15:18:00,29.1,20.9,30.13,ESE,112,8.5,16.6,71,0.00,,,1.35,WUHU21623XXSP,2013-02-21 21:18:00,
2013-02-21 15:23:00,28.9,20.7,30.13,East,90,10.5,16.6,71,0.00,,,1.35,WUHU21623XXSP,2013-02-21 21:23:00,
2013-02-21 15:28:00,28.9,21.0,30.13,East,90,10.5,15.0,72,0.00,,,1.35,WUHU21623XXSP,2013-02-21 21:28:00,
2013-02-21 15:33:00,28.9,21.0,30.12,ESE,112,8.1,14.1,72,0.00,,,1.35,WUHU21623XXSP,2013-02-21 21:33:00,
2013-02-21 15:38:00,28.8,20.9,30.12,ESE,112,8.7,16.3,72,0.00,,,1.35,WUHU21623XXSP,2013-02-21 21:38:00,
2013-02-21 15:43:00,28.8,20.9,30.11,ESE,112,8.9,16.3,72,0.00,,,1.35,WUHU21623XXSP,2013-02-21 21:43:00,
2013-02-21 15:49:00,28.6,20.7,30.11,ESE,112,8.7,18.6,72,0.00,,,1.35,WUHU21623XXSP,2013-02-21 21:49:00,
2013-02-21 15:54:00,28.8,20.9,30.11,ESE,112,8.5,18.6,72,0.00,,,1.35,WUHU21623XXSP,2013-02-21 21:54:00,
2013-02-21 15:59:00,28.8,20.9,30.10,East,90,11.6,15.7,72,0.00,,,1.35,WUHU21623XXSP,2013-02-21 21:59:00,
2013-02-21 16:04:00,28.8,20.9,30.10,ESE,112,7.6,15.2,72,0.00,,,1.35,WUHU21623XXSP,2013-02-21 22:04:00,
2013-02-21 16:09:00,28.6,20.7,30.09,ESE,112,9.4,15.4,72,0.00,,,1.35,WUHU21623XXSP,2013-02-21 22:09:00,
2013-02-21 16:14:00,28.6,20.7,30.08,East,90,13.4,15.4,72,0.00,,,1.35,WUHU21623XXSP,2013-02-21 22:14:00,
2013-02-21 16:19:00,28.4,20.9,30.08,East,90,8.9,15.2,73,0.00,,,1.35,WUHU21623XXSP,2013-02-21 22:19:00,
2013-02-21 16:24:00,28.6,21.0,30.08,ESE,112,14.8,15.0,73,0.00,,,1.35,WUHU21623XXSP,2013-02-21 22:24:00,
2013-02-21 16:29:00,28.2,20.7,30.09,East,90,13.4,15.4,73,0.00,,,1.35,WUHU21623XXSP,2013-02-21 22:29:00,
2013-02-21 16:34:00,28.2,20.7,30.09,SE,135,11.0,15.4,73,0.00,,,1.35,WUHU21623XXSP,2013-02-21 22:34:00,
2013-02-21 16:39:00,28.2,20.7,30.09,East,90,11.4,15.0,73,0.00,,,1.35,WUHU21623XXSP,2013-02-21 22:39:00,
2013-02-21 16:44:00,28.0,20.5,30.10,ESE,112,5.8,15.0,73,0.00,,,1.35,WUHU21623XXSP,2013-02-21 22:44:00,
2013-02-21 16:49:00,28.0,20.5,30.10,East,90,8.3,14.3,73,0.00,,,1.35,WUHU21623XXSP,2013-02-21 22:49:00,
2013-02-21 16:54:00,28.0,20.5,30.10,ESE,112,9.6,14.3,73,0.00,,,1.35,WUHU21623XXSP,2013-02-21 22:54:00,
2013-02-21 16:59:00,28.0,20.5,30.11,ESE,112,7.8,12.3,73,0.00,,,1.35,WUHU21623XXSP,2013-02-21 22:59:00,
2013-02-21 17:04:00,27.7,20.4,30.10,ESE,112,9.2,12.3,74,0.00,,,1.35,WUHU21623XXSP,2013-02-21 23:04:00,
2013-02-21 17:09:00,27.7,20.4,30.10,SE,135,10.3,13.6,74,0.00,,,1.35,WUHU21623XXSP,2013-02-21 23:09:00,
2013-02-21 17:14:00,27.7,20.4,30.09,ESE,112,9.8,14.5,74,0.00,,,1.35,WUHU21623XXSP,2013-02-21 23:14:00,
2013-02-21 17:19:00,27.7,20.4,30.10,ESE,112,10.1,14.5,74,0.00,,,1.35,WUHU21623XXSP,2013-02-21 23:19:00,
2013-02-21 17:24:00,27.7,20.4,30.09,ESE,112,10.7,14.5,74,0.00,,,1.35,WUHU21623XXSP,2013-02-21 23:24:00,
2013-02-21 17:29:00,27.5,20.3,30.08,SE,135,7.2,14.5,74,0.00,,,1.35,WUHU21623XXSP,2013-02-21 23:29:00,
2013-02-21 17:34:00,27.5,20.6,30.07,SE,135,10.1,11.6,75,0.00,,,1.35,WUHU21623XXSP,2013-02-21 23:34:00,
2013-02-21 17:39:00,27.5,20.6,30.07,ESE,112,8.9,14.8,75,0.00,,,1.35,WUHU21623XXSP,2013-02-21 23:39:00,
2013-02-21 17:44:00,27.3,20.4,30.06,East,90,10.7,17.9,75,0.00,,,1.35,WUHU21623XXSP,2013-02-21 23:44:00,
2013-02-21 17:49:00,27.1,20.2,30.05,ESE,112,11.9,17.9,75,0.00,,,1.35,WUHU21623XXSP,2013-02-21 23:49:00,
2013-02-21 17:54:00,27.1,20.5,30.04,ESE,112,11.6,18.1,76,0.00,,,1.35,WUHU21623XXSP,2013-02-21 23:54:00,
2013-02-21 17:59:00,27.1,20.5,30.04,ESE,112,14.8,18.1,76,0.00,,,1.35,WUHU21623XXSP,2013-02-21 23:59:00,
2013-02-21 18:04:00,27.0,20.3,30.03,ESE,112,15.2,17.2,76,0.00,,,1.35,WUHU21623XXSP,2013-02-22 00:04:00,
2013-02-21 18:10:00,27.0,20.3,30.03,East,90,20.4,20.4,76,0.00,,,1.35,WUHU21623XXSP,2013-02-22 00:10:00,
2013-02-21 18:15:00,27.0,20.6,30.03,East,90,14.3,20.4,77,0.00,,,1.35,WUHU21623XXSP,2013-02-22 00:15:00,
2013-02-21 18:20:00,26.8,20.5,30.03,ESE,112,17.4,18.6,77,0.00,,,1.35,WUHU21623XXSP,2013-02-22 00:20:00,
2013-02-21 18:25:00,26.8,20.8,30.02,ESE,112,11.9,18.6,78,0.00,,,1.35,WUHU21623XXSP,2013-02-22 00:25:00,
2013-02-21 18:30:00,26.6,20.6,30.03,ESE,112,11.0,15.4,78,0.00,,,1.35,WUHU21623XXSP,2013-02-22 00:30:00,
2013-02-21 18:35:00,26.4,20.7,30.03,East,90,9.2,15.4,79,0.00,,,1.35,WUHU21623XXSP,2013-02-22 00:35:00,
2013-02-21 18:40:00,26.4,20.7,30.03,ESE,112,12.3,17.2,79,0.00,,,1.35,WUHU21623XXSP,2013-02-22 00:40:00,
2013-02-21 18:45:00,26.4,20.7,30.02,ESE,112,11.9,18.1,79,0.00,,,1.35,WUHU21623XXSP,2013-02-22 00:45:00,
2013-02-21 18:50:00,26.2,20.9,30.02,ESE,112,14.8,18.1,80,0.00,,,1.35,WUHU21623XXSP,2013-02-22 00:50:00,
2013-02-21 18:55:00,26.2,20.9,30.01,East,90,10.1,16.1,80,0.00,,,1.35,WUHU21623XXSP,2013-02-22 00:55:00,
2013-02-21 19:00:00,26.1,21.0,30.00,East,90,9.6,20.1,81,0.00,,,1.35,WUHU21623XXSP,2013-02-22 01:00:00,
2013-02-21 19:05:00,25.9,20.8,29.99,East,90,10.1,21.5,81,0.00,,,1.35,WUHU21623XXSP,2013-02-22 01:05:00,
2013-02-21 19:10:00,25.7,20.7,29.99,ESE,112,11.0,21.9,81,0.00,,,1.35,WUHU21623XXSP,2013-02-22 01:10:00,
2013-02-21 19:15:00,25.5,20.8,29.97,East,90,11.4,21.9,82,0.00,,,1.35,WUHU21623XXSP,2013-02-22 01:15:00,
2013-02-21 19:20:00,25.5,20.8,29.96,East,90,13.2,21.0,82,0.00,,,1.35,WUHU21623XXSP,2013-02-22 01:20:00,
2013-02-21 19:25:00,25.5,20.8,29.96,ESE,112,15.9,22.6,82,0.00,,,1.35,WUHU21623XXSP,2013-02-22 01:25:00,
2013-02-21 19:30:00,25.3,20.9,29.94,East,90,15.7,22.6,83,0.00,,,1.35,WUHU21623XXSP,2013-02-22 01:30:00,
2013-02-21 19:35:00,25.3,20.9,29.93,ESE,112,17.0,20.4,83,0.00,,,1.35,WUHU21623XXSP,2013-02-22 01:35:00,
2013-02-21 19:40:00,25.3,20.9,29.94,ESE,112,21.5,24.4,83,0.00,,,1.35,WUHU21623XXSP,2013-02-22 01:40:00,
2013-02-21 19:45:00,25.3,20.9,29.93,East,90,19.2,24.6,83,0.00,,,1.35,WUHU21623XXSP,2013-02-22 01:45:00,
2013-02-21 19:50:00,25.3,20.9,29.91,East,90,15.7,25.7,83,0.00,,,1.35,WUHU21623XXSP,2013-02-22 01:50:00,
2013-02-21 19:55:00,25.3,20.9,29.91,East,90,17.9,26.8,83,0.00,,,1.35,WUHU21623XXSP,2013-02-22 01:55:00,
2013-02-21 20:00:00,25.3,20.9,29.91,East,90,15.9,26.8,83,0.00,,,1.35,WUHU21623XXSP,2013-02-22 02:00:00,
2013-02-21 20:05:00,25.5,21.1,29.91,East,90,20.8,25.9,83,0.00,,,1.35,WUHU21623XXSP,2013-02-22 02:05:00,
2013-02-21 20:10:00,25.5,21.1,29.91,East,90,16.6,25.9,83,0.00,,,1.35,WUHU21623XXSP,2013-02-22 02:10:00,
2013-02-21 20:15:00,25.5,21.1,29.91,ESE,112,14.1,25.1,83,0.00,,,1.35,WUHU21623XXSP,2013-02-22 02:15:00,
2013-02-21 20:20:00,25.5,21.1,29.91,East,90,13.2,25.1,83,0.00,,,1.35,WUHU21623XXSP,2013-02-22 02:20:00,
2013-02-21 20:25:00,25.5,21.1,29.91,ESE,112,25.7,25.7,83,0.00,,,1.35,WUHU21623XXSP,2013-02-22 02:25:00,
2013-02-21 20:30:00,25.5,21.1,29.91,ESE,112,20.1,25.7,83,0.00,,,1.35,WUHU21623XXSP,2013-02-22 02:30:00,
2013-02-21 20:35:00,25.5,21.1,29.91,ESE,112,10.3,24.4,83,0.00,,,1.35,WUHU21623XXSP,2013-02-22 02:35:00,
2013-02-21 20:41:00,25.5,21.1,29.92,ESE,112,12.1,24.4,83,0.00,,,1.35,WUHU21623XXSP,2013-02-22 02:41:00,
2013-02-21 20:46:00,25.5,21.1,29.92,East,90,10.1,23.3,83,0.00,,,1.35,WUHU21623XXSP,2013-02-22 02:46:00,
2013-02-21 20:51:00,25.5,21.1,29.93,ESE,112,13.4,24.4,83,0.00,,,1.35,WUHU21623XXSP,2013-02-22 02:51:00,
2013-02-21 20:56:00,25.5,21.1,29.93,East,90,11.2,24.4,83,0.00,,,1.35,WUHU21623XXSP,2013-02-22 02:56:00,
2013-02-21 21:01:00,25.7,21.2,29.93,East,90,17.7,21.3,83,0.00,,,1.35,WUHU21623XXSP,2013-02-22 03:01:00,
2013-02-21 21:06:00,25.5,21.1,29.93,ESE,112,15.7,20.8,83,0.00,,,1.35,WUHU21623XXSP,2013-02-22 03:06:00,
2013-02-21 21:11:00,25.7,21.2,29.93,East,90,13.0,21.9,83,0.00,,,1.35,WUHU21623XXSP,2013-02-22 03:11:00,
2013-02-21 21:16:00,25.7,21.2,29.93,ESE,112,15.9,18.1,83,0.00,,,1.35,WUHU21623XXSP,2013-02-22 03:16:00,
2013-02-21 21:21:00,25.7,21.5,29.92,ESE,112,15.7,18.6,84,0.00,,,1.35,WUHU21623XXSP,2013-02-22 03:21:00,
2013-02-21 21:26:00,25.7,21.5,29.91,ESE,112,13.4,19.7,84,0.00,,,1.35,WUHU21623XXSP,2013-02-22 03:26:00,
2013-02-21 21:31:00,25.7,21.5,29.91,ESE,112,14.8,20.1,84,0.00,,,1.35,WUHU21623XXSP,2013-02-22 03:31:00,
2013-02-21 21:36:00,25.7,21.5,29.91,ESE,112,13.4,23.0,84,0.00,,,1.35,WUHU21623XXSP,2013-02-22 03:36:00,
2013-02-21 21:41:00,25.7,21.5,29.91,ESE,112,16.1,23.0,84,0.00,,,1.35,WUHU21623XXSP,2013-02-22 03:41:00,
2013-02-21 21:46:00,25.9,21.7,29.91,ESE,112,15.9,16.8,84,0.00,,,1.35,WUHU21623XXSP,2013-02-22 03:46:00,
2013-02-21 21:51:00,25.9,21.7,29.92,ESE,112,15.0,21.5,84,0.00,,,1.35,WUHU21623XXSP,2013-02-22 03:51:00,
2013-02-21 21:56:00,25.9,21.7,29.92,East,90,15.4,21.5,84,0.00,,,1.35,WUHU21623XXSP,2013-02-22 03:56:00,
2013-02-21 22:02:00,25.9,21.7,29.91,ESE,112,16.3,19.0,84,0.00,,,1.35,WUHU21623XXSP,2013-02-22 04:02:00,
2013-02-21 22:07:00,26.1,21.8,29.92,ESE,112,10.5,19.5,84,0.00,,,1.35,WUHU21623XXSP,2013-02-22 04:07:00,
2013-02-21 22:12:00,26.1,21.8,29.91,ESE,112,11.2,17.4,84,0.00,,,1.35,WUHU21623XXSP,2013-02-22 04:12:00,
2013-02-21 22:17:00,26.1,21.8,29.91,ESE,112,14.3,17.4,84,0.00,,,1.35,WUHU21623XXSP,2013-02-22 04:17:00,
2013-02-21 22:22:00,26.2,22.0,29.92,East,90,10.1,14.5,84,0.00,,,1.35,WUHU21623XXSP,2013-02-22 04:22:00,
2013-02-21 22:30:00,26.1,21.8,29.91,East,90,10.5,13.2,84,0.00,,,1.35,WUHU21623XXSP,2013-02-22 04:30:00,
2013-02-21 22:35:00,26.2,22.0,29.91,ESE,112,11.0,15.7,84,0.00,,,1.35,WUHU21623XXSP,2013-02-22 04:35:00,
2013-02-21 22:40:00,26.1,21.8,29.91,ESE,112,11.9,15.7,84,0.00,,,1.35,WUHU21623XXSP,2013-02-22 04:40:00,
2013-02-21 22:45:00,26.1,21.8,29.91,East,90,13.6,16.3,84,0.00,,,1.35,WUHU21623XXSP,2013-02-22 04:45:00,
2013-02-21 22:50:00,26.1,21.8,29.91,ESE,112,9.4,16.3,84,0.00,,,1.35,WUHU21623XXSP,2013-02-22 04:50:00,
2013-02-21 23:40:00,27.1,23.2,29.87,ESE,113,8.7,8.7,85,0.00,,,0.00,WUHU21623XXSP,2013-02-22 05:40:00,